createdAt,value
2023-03-15T00:01:31.633Z,4.80
2023-03-15T00:05:13.581Z,4.80
2023-03-15T00:08:55.322Z,4.70
2023-03-15T00:12:37.099Z,4.70
2023-03-15T00:16:18.987Z,4.70
2023-03-15T00:20:01.586Z,4.70
2023-03-15T00:23:43.457Z,4.70
2023-03-15T00:27:25.179Z,4.60
2023-03-15T00:31:13.051Z,4.50
2023-03-15T00:34:54.820Z,4.40
2023-03-15T00:38:38.154Z,4.30
2023-03-15T00:42:19.933Z,4.20
2023-03-15T00:46:02.733Z,4.20
2023-03-15T00:49:45.545Z,4.20
2023-03-15T00:53:27.296Z,4.20
2023-03-15T00:57:09.094Z,4.10
2023-03-15T01:00:51.861Z,4.10
2023-03-15T01:04:33.618Z,4.20
2023-03-15T01:08:15.460Z,4.10
2023-03-15T01:11:58.408Z,4.00
2023-03-15T01:15:40.221Z,4.00
2023-03-15T01:19:22.037Z,3.90
2023-03-15T01:23:03.759Z,3.80
2023-03-15T01:26:45.493Z,3.70
2023-03-15T01:30:27.222Z,3.70
2023-03-15T01:34:09.663Z,3.70
2023-03-15T01:37:52.140Z,3.60
2023-03-15T01:41:33.943Z,3.60
2023-03-15T01:45:53.102Z,3.60
2023-03-15T01:49:35.360Z,3.50
2023-03-15T01:53:17.327Z,3.40
2023-03-15T01:57:09.986Z,3.30
2023-03-15T02:00:53.109Z,3.20
2023-03-15T02:04:57.083Z,3.20
2023-03-15T02:08:43.590Z,3.20
2023-03-15T02:12:26.609Z,3.20
2023-03-15T02:16:08.565Z,3.10
2023-03-15T02:20:02.293Z,3.10
2023-03-15T02:23:48.023Z,3.00
2023-03-15T02:27:34.509Z,3.00
2023-03-15T02:31:16.546Z,3.00
2023-03-15T02:34:58.398Z,2.90
2023-03-15T02:38:40.147Z,2.90
2023-03-15T02:42:23.886Z,2.90
2023-03-15T02:46:06.192Z,2.90
2023-03-15T02:49:52.228Z,2.80
2023-03-15T02:53:34.439Z,2.90
2023-03-15T02:57:18.185Z,2.90
2023-03-15T03:01:00.004Z,2.80
2023-03-15T03:04:41.945Z,2.80
2023-03-15T03:08:23.685Z,2.70
2023-03-15T03:12:05.776Z,2.70
2023-03-15T03:15:50.230Z,2.70
2023-03-15T03:19:31.937Z,2.70
2023-03-15T03:23:13.828Z,2.60
2023-03-15T03:26:58.349Z,2.50
2023-03-15T03:30:40.162Z,2.50
2023-03-15T03:34:21.983Z,2.40
2023-03-15T03:38:03.773Z,2.40
2023-03-15T03:41:45.500Z,2.30
2023-03-15T03:45:27.346Z,2.30
2023-03-15T03:49:09.105Z,2.20
2023-03-15T03:52:51.083Z,2.20
2023-03-15T03:56:32.823Z,2.10
2023-03-15T04:00:15.005Z,2.10
2023-03-15T04:03:56.786Z,2.10
2023-03-15T04:07:39.086Z,2.20
2023-03-15T04:11:20.788Z,2.10
2023-03-15T04:15:03.433Z,2.10
2023-03-15T04:18:45.267Z,2.00
2023-03-15T04:22:27.094Z,2.00
2023-03-15T04:26:12.003Z,1.90
2023-03-15T04:29:53.837Z,1.90
2023-03-15T04:33:35.619Z,1.90
2023-03-15T04:37:20.444Z,1.80
2023-03-15T04:41:02.234Z,1.80
2023-03-15T04:44:44.020Z,1.80
2023-03-15T04:48:25.799Z,1.80
2023-03-15T04:52:07.600Z,1.80
2023-03-15T04:55:49.324Z,1.80
2023-03-15T04:59:31.231Z,1.80
2023-03-15T05:03:12.956Z,1.80
2023-03-15T05:06:54.691Z,1.80
2023-03-15T05:10:36.420Z,1.80
2023-03-15T05:14:18.209Z,1.90
2023-03-15T05:17:59.926Z,1.80
2023-03-15T05:21:41.677Z,1.80
2023-03-15T05:25:24.433Z,1.80
2023-03-15T05:29:06.196Z,1.80
2023-03-15T05:32:47.943Z,1.80
2023-03-15T05:36:30.877Z,1.80
2023-03-15T05:40:13.013Z,1.80
2023-03-15T05:43:54.745Z,1.80
2023-03-15T05:47:36.464Z,1.90
2023-03-15T05:51:18.227Z,1.90
2023-03-15T05:54:59.932Z,1.90
2023-03-15T05:58:41.799Z,1.80
2023-03-15T06:02:23.754Z,1.80
2023-03-15T06:06:05.746Z,1.80
2023-03-15T06:09:47.445Z,1.80
2023-03-15T06:13:29.293Z,1.80
2023-03-15T06:17:11.151Z,1.80
2023-03-15T06:20:52.925Z,1.80
2023-03-15T06:24:34.801Z,1.80
2023-03-15T06:28:16.612Z,1.70
2023-03-15T06:31:58.325Z,1.70
2023-03-15T06:35:40.908Z,1.70
2023-03-15T06:39:23.802Z,1.70
2023-03-15T06:43:06.712Z,1.70
2023-03-15T06:46:49.347Z,1.70
2023-03-15T06:50:44.224Z,1.70
2023-03-15T06:54:28.118Z,1.70
2023-03-15T06:58:09.894Z,1.80
2023-03-15T07:01:51.722Z,1.80
2023-03-15T07:05:33.593Z,1.80
2023-03-15T07:09:15.574Z,1.80
2023-03-15T07:12:57.350Z,1.90
2023-03-15T07:16:39.205Z,1.90
2023-03-15T07:20:21.139Z,2.00
2023-03-15T07:24:02.916Z,2.10
2023-03-15T07:27:44.705Z,2.10
2023-03-15T07:31:26.942Z,2.20
2023-03-15T07:35:11.044Z,2.20
2023-03-15T07:38:53.996Z,2.30
2023-03-15T07:42:43.111Z,2.40
2023-03-15T07:46:24.916Z,2.40
2023-03-15T07:50:07.862Z,2.50
2023-03-15T07:53:49.674Z,2.70
2023-03-15T07:57:32.357Z,2.70
2023-03-15T08:01:14.145Z,2.80
2023-03-15T08:04:56.024Z,2.90
2023-03-15T08:08:37.762Z,2.90
2023-03-15T08:12:19.561Z,3.00
2023-03-15T08:16:01.575Z,3.10
2023-03-15T08:19:43.962Z,3.20
2023-03-15T08:23:25.932Z,3.30
2023-03-15T08:27:07.942Z,3.50
2023-03-15T08:30:49.706Z,3.50
2023-03-15T08:34:34.701Z,3.60
2023-03-15T08:38:16.419Z,3.70
2023-03-15T08:41:58.180Z,3.80
2023-03-15T08:45:56.757Z,3.90
2023-03-15T08:49:41.191Z,4.00
2023-03-15T08:53:22.945Z,4.10
2023-03-15T08:57:04.828Z,4.20
2023-03-15T09:00:48.517Z,4.30
2023-03-15T09:04:30.999Z,4.40
2023-03-15T09:08:14.103Z,4.50
2023-03-15T09:11:56.319Z,4.70
2023-03-15T09:15:38.181Z,4.80
2023-03-15T09:19:19.987Z,4.90
2023-03-15T09:23:01.778Z,5.10
2023-03-15T09:26:43.578Z,5.20
2023-03-15T09:30:25.384Z,5.40
2023-03-15T09:34:07.279Z,5.50
2023-03-15T09:37:51.142Z,5.70
2023-03-15T09:42:06.488Z,5.90
2023-03-15T09:46:12.003Z,6.00
2023-03-15T09:50:20.207Z,6.20
2023-03-15T09:54:11.546Z,6.30
2023-03-15T09:58:16.207Z,6.40
2023-03-15T10:02:01.285Z,6.60
2023-03-15T10:05:49.397Z,6.70
2023-03-15T10:09:33.760Z,6.80
2023-03-15T10:13:53.169Z,6.90
2023-03-15T10:17:59.085Z,7.00
2023-03-15T10:21:54.290Z,7.10
2023-03-15T10:25:37.551Z,7.20
2023-03-15T10:29:22.407Z,7.30
2023-03-15T10:33:24.922Z,7.40
2023-03-15T10:37:09.465Z,7.50
2023-03-15T10:40:53.603Z,7.70
2023-03-15T10:44:37.770Z,7.80
2023-03-15T10:48:19.500Z,7.90
2023-03-15T10:52:01.408Z,7.90
2023-03-15T10:55:44.956Z,8.10
2023-03-15T10:59:29.714Z,8.10
2023-03-15T11:03:20.980Z,8.30
2023-03-15T11:07:07.637Z,8.40
2023-03-15T11:10:58.736Z,8.50
2023-03-15T11:14:44.681Z,8.60
2023-03-15T11:18:31.348Z,8.70
2023-03-15T11:22:14.235Z,8.80
2023-03-15T11:25:56.573Z,8.80
2023-03-15T11:29:40.035Z,8.80
2023-03-15T11:33:30.326Z,8.80
2023-03-15T11:37:22.011Z,8.80
2023-03-15T11:41:14.717Z,8.80
2023-03-15T11:45:01.839Z,8.80
2023-03-15T11:49:09.524Z,8.80
2023-03-15T11:52:52.725Z,8.90
2023-03-15T11:56:43.871Z,8.90
2023-03-15T12:00:34.509Z,9.00
2023-03-15T12:04:25.526Z,9.10
2023-03-15T12:08:38.088Z,9.20
2023-03-15T12:12:25.983Z,9.40
2023-03-15T12:16:07.956Z,9.50
2023-03-15T12:19:59.258Z,9.60
2023-03-15T12:24:01.487Z,9.80
2023-03-15T12:27:53.882Z,10.00
2023-03-15T12:31:56.200Z,10.20
2023-03-15T12:35:41.102Z,10.30
2023-03-15T12:39:42.662Z,10.40
2023-03-15T12:43:38.183Z,10.50
2023-03-15T12:47:19.963Z,10.50
2023-03-15T12:51:04.018Z,10.50
2023-03-15T12:54:59.848Z,10.50
2023-03-15T12:58:43.906Z,10.60
2023-03-15T13:02:42.165Z,10.80
2023-03-15T13:06:38.426Z,10.90
2023-03-15T13:10:23.203Z,11.00
2023-03-15T13:14:23.575Z,10.90
2023-03-15T13:18:17.902Z,11.00
2023-03-15T13:22:12.304Z,11.00
2023-03-15T13:26:35.146Z,10.90
2023-03-15T13:30:37.636Z,10.80
2023-03-15T13:34:24.295Z,10.80
2023-03-15T13:38:26.439Z,10.80
2023-03-15T13:42:19.372Z,10.80
2023-03-15T13:46:02.241Z,10.80
2023-03-15T13:49:44.036Z,10.80
2023-03-15T13:53:43.191Z,10.80
2023-03-15T13:57:29.755Z,10.90
2023-03-15T14:01:14.262Z,10.80
2023-03-15T14:05:05.787Z,10.80
2023-03-15T14:08:49.617Z,10.70
2023-03-15T14:12:31.517Z,10.60
2023-03-15T14:16:31.288Z,10.60
2023-03-15T14:20:16.710Z,10.50
2023-03-15T14:24:06.586Z,10.50
2023-03-15T14:27:48.489Z,10.40
2023-03-15T14:31:35.577Z,10.30
2023-03-15T14:35:24.721Z,10.20
2023-03-15T14:39:28.662Z,10.10
2023-03-15T14:43:11.068Z,10.00
2023-03-15T14:46:53.030Z,10.00
2023-03-15T14:50:41.670Z,10.00
2023-03-15T14:54:24.286Z,9.90
2023-03-15T14:58:18.394Z,9.80
2023-03-15T15:02:02.859Z,9.80
2023-03-15T15:05:45.200Z,9.80
2023-03-15T15:09:28.420Z,9.70
2023-03-15T15:13:22.703Z,9.70
2023-03-15T15:17:04.527Z,9.70
2023-03-15T15:20:46.697Z,9.70
2023-03-15T15:24:28.558Z,9.60
2023-03-15T15:28:13.886Z,9.60
2023-03-15T15:31:57.561Z,9.60
2023-03-15T15:35:39.557Z,9.70
2023-03-15T15:39:23.797Z,9.70
2023-03-15T15:43:05.974Z,9.70
2023-03-15T15:46:47.857Z,9.70
2023-03-15T15:50:29.636Z,9.80
2023-03-15T15:54:20.674Z,9.80
2023-03-15T15:58:04.470Z,9.90
2023-03-15T16:02:06.932Z,9.80
2023-03-15T16:05:48.782Z,9.80
2023-03-15T16:09:35.958Z,9.70
2023-03-15T16:13:18.256Z,9.70
2023-03-15T16:17:00.116Z,9.70
2023-03-15T16:20:42.098Z,9.70
2023-03-15T16:24:28.148Z,9.60
2023-03-15T16:28:11.244Z,9.60
2023-03-15T16:31:53.065Z,9.50
2023-03-15T16:35:36.030Z,9.50
2023-03-15T16:39:18.395Z,9.50
2023-03-15T16:43:01.145Z,9.50
2023-03-15T16:46:43.967Z,9.40
2023-03-15T16:50:26.695Z,9.40
2023-03-15T16:54:21.783Z,9.30
2023-03-15T16:58:16.735Z,9.30
2023-03-15T17:01:58.846Z,9.20
2023-03-15T17:05:42.917Z,9.20
2023-03-15T17:09:24.894Z,9.20
2023-03-15T17:13:07.235Z,9.10
2023-03-15T17:16:49.089Z,9.10
2023-03-15T17:20:31.683Z,9.10
2023-03-15T17:24:14.043Z,9.10
2023-03-15T17:27:55.846Z,9.10
2023-03-15T17:31:38.017Z,9.10
2023-03-15T17:35:22.056Z,9.00
2023-03-15T17:39:07.144Z,9.00
2023-03-15T17:42:50.422Z,9.00
2023-03-15T17:46:33.614Z,9.00
2023-03-15T17:50:16.973Z,9.00
2023-03-15T17:53:59.630Z,9.00
2023-03-15T17:57:45.795Z,9.00
2023-03-15T18:01:35.534Z,9.00
2023-03-15T18:05:28.492Z,9.00
2023-03-15T18:09:12.518Z,8.90
2023-03-15T18:12:54.669Z,9.00
2023-03-15T18:16:37.576Z,8.90
2023-03-15T18:20:22.827Z,9.00
2023-03-15T18:24:05.876Z,8.90
2023-03-15T18:27:49.216Z,8.90
2023-03-15T18:31:31.761Z,8.80
2023-03-15T18:35:35.946Z,8.80
2023-03-15T18:39:18.868Z,8.70
2023-03-15T18:43:01.465Z,8.60
2023-03-15T18:46:44.088Z,8.60
2023-03-15T18:50:27.135Z,8.60
2023-03-15T18:54:08.968Z,8.60
2023-03-15T18:57:53.420Z,8.60
2023-03-15T19:01:35.599Z,8.50
2023-03-15T19:05:18.105Z,8.50
2023-03-15T19:09:00.016Z,8.50
2023-03-15T19:12:44.590Z,8.50
2023-03-15T19:16:28.677Z,8.50
2023-03-15T19:20:12.365Z,8.60
2023-03-15T19:23:55.169Z,8.50
2023-03-15T19:27:38.545Z,8.60
2023-03-15T19:31:20.704Z,8.60
2023-03-15T19:35:02.651Z,8.50
2023-03-15T19:38:45.062Z,8.50
2023-03-15T19:42:27.751Z,8.50
2023-03-15T19:46:12.121Z,8.60
2023-03-15T19:49:55.473Z,8.50
2023-03-15T19:53:38.719Z,8.60
2023-03-15T19:57:21.105Z,8.60
2023-03-15T20:01:03.156Z,8.60
2023-03-15T20:04:46.132Z,8.60
2023-03-15T20:08:29.009Z,8.60
2023-03-15T20:12:14.291Z,8.60
2023-03-15T20:15:57.849Z,8.60
2023-03-15T20:19:40.793Z,8.60
2023-03-15T20:23:23.519Z,8.60
2023-03-15T20:27:05.927Z,8.60
2023-03-15T20:30:48.241Z,8.70
2023-03-15T20:34:32.916Z,8.70
2023-03-15T20:38:15.341Z,8.80
2023-03-15T20:41:58.669Z,8.70
2023-03-15T20:45:42.157Z,8.70
2023-03-15T20:49:26.992Z,8.70
2023-03-15T20:53:12.082Z,8.70
2023-03-15T20:56:53.995Z,8.80
2023-03-15T21:00:37.127Z,8.80
2023-03-15T21:04:22.111Z,8.80
2023-03-15T21:08:04.327Z,8.80
2023-03-15T21:11:46.104Z,8.90
2023-03-15T21:15:28.008Z,8.90
2023-03-15T21:19:09.782Z,8.90
2023-03-15T21:22:51.555Z,8.90
2023-03-15T21:26:33.366Z,8.90
2023-03-15T21:30:15.366Z,8.90
2023-03-15T21:33:57.202Z,9.00
2023-03-15T21:37:39.020Z,9.00
2023-03-15T21:41:21.321Z,9.00
2023-03-15T21:45:04.566Z,9.10
2023-03-15T21:48:46.469Z,9.10
2023-03-15T21:52:28.433Z,9.20
2023-03-15T21:56:10.484Z,9.20
2023-03-15T21:59:52.279Z,9.30
2023-03-15T22:03:35.425Z,9.30
2023-03-15T22:07:17.445Z,9.30
2023-03-15T22:10:59.642Z,9.40
2023-03-15T22:14:42.176Z,9.40
2023-03-15T22:18:23.994Z,9.40
2023-03-15T22:22:05.819Z,9.50
2023-03-15T22:25:47.595Z,9.50
2023-03-15T22:29:29.697Z,9.50
2023-03-15T22:33:11.878Z,9.60
2023-03-15T22:36:54.014Z,9.60
2023-03-15T22:40:37.695Z,9.70
2023-03-15T22:44:19.571Z,9.70
2023-03-15T22:48:01.305Z,9.70
2023-03-15T22:51:43.053Z,9.80
2023-03-15T22:55:25.306Z,9.80
2023-03-15T22:59:07.094Z,9.90
2023-03-15T23:02:49.174Z,9.90
2023-03-15T23:06:30.998Z,9.90
2023-03-15T23:10:12.778Z,10.00
2023-03-15T23:13:54.579Z,10.00
2023-03-15T23:17:36.317Z,10.00
2023-03-15T23:21:18.122Z,10.00
2023-03-15T23:24:59.897Z,10.10
2023-03-15T23:28:41.645Z,10.10
2023-03-15T23:32:25.077Z,10.10
2023-03-15T23:36:07.469Z,10.10
2023-03-15T23:39:49.196Z,10.20
2023-03-15T23:43:32.600Z,10.20
2023-03-15T23:47:14.338Z,10.20
2023-03-15T23:50:58.105Z,10.20
2023-03-15T23:54:41.259Z,10.30
2023-03-15T23:58:23.392Z,10.30
